Time;durP1;ratioP1;P1;durP2;ratioP2;P2;SDS_P1;SDS_P2;PMS_P1;PMS_P2;Temp;Humidity;BMP_temperature;BMP_pressure;BME280_temperature;BME280_humidity;BME280_pressure;Samples;Min_cycle;Max_cycle;Signal;HPM_P1;HPM_P2
2021/01/01 00:01:42;;;;;;;1722.88;902.10;;;;;;;-0.16;100.00;100628.69;5010829;28;20116;-77
2021/01/01 00:04:07;;;;;;;1618.28;871.97;;;;;;;-0.01;100.00;100651.44;5023280;28;20033;-76
2021/01/01 00:06:33;;;;;;;1509.22;848.83;;;;;;;-0.30;100.00;100611.16;5008621;28;20041;-80
2021/01/01 00:08:59;;;;;;;1421.35;811.88;;;;;;;-0.03;100.00;100657.72;5014968;28;20079;-81
2021/01/01 00:11:25;;;;;;;1293.47;761.35;;;;;;;-0.06;100.00;100663.94;4996404;28;20037;-82
2021/01/01 00:13:51;;;;;;;1176.55;721.08;;;;;;;-0.07;100.00;100661.44;5000503;28;20092;-82
2021/01/01 00:16:16;;;;;;;1079.35;668.53;;;;;;;-0.06;100.00;100652.63;5023147;28;20048;-81
2021/01/01 00:18:42;;;;;;;996.28;622.42;;;;;;;-0.34;100.00;100618.34;5024832;28;20495;-82
2021/01/01 00:21:08;;;;;;;855.85;523.50;;;;;;;-0.04;100.00;100659.47;5023005;28;20033;-81
2021/01/01 00:23:33;;;;;;;822.60;507.90;;;;;;;-0.31;100.00;100615.53;5026146;28;20033;-85
2021/01/01 00:25:59;;;;;;;796.97;473.02;;;;;;;-0.22;100.00;100627.28;5024524;28;20416;-81
2021/01/01 00:28:24;;;;;;;707.42;412.85;;;;;;;-0.08;100.00;100638.75;5002228;28;20059;-82
2021/01/01 00:30:50;;;;;;;709.92;400.98;;;;;;;-0.12;100.00;100631.97;5009503;28;20468;-82
2021/01/01 00:33:15;;;;;;;673.38;380.23;;;;;;;-0.06;100.00;100642.13;5000599;28;20041;-85
2021/01/01 00:35:41;;;;;;;644.97;360.63;;;;;;;0.08;100.00;100667.56;5017794;28;20038;-82
2021/01/01 00:38:06;;;;;;;628.30;348.08;;;;;;;-0.12;100.00;100635.47;5029968;28;20049;-82
2021/01/01 00:40:32;;;;;;;613.38;335.42;;;;;;;0.14;100.00;100665.41;5024786;28;20491;-81
2021/01/01 00:42:57;;;;;;;596.42;331.80;;;;;;;0.17;100.00;100666.19;5028213;28;20030;-81
2021/01/01 00:45:23;;;;;;;602.85;332.70;;;;;;;0.15;100.00;100666.28;5022038;28;20075;-81
2021/01/01 00:47:49;;;;;;;602.90;337.08;;;;;;;0.07;100.00;100642.28;5015487;28;20029;-80
2021/01/01 00:50:15;;;;;;;719.85;407.40;;;;;;;0.17;100.00;100666.19;5005282;28;20098;-81
2021/01/01 00:52:40;;;;;;;720.30;406.95;;;;;;;0.18;100.00;100666.09;5012265;28;20442;-81
2021/01/01 00:55:06;;;;;;;670.50;368.38;;;;;;;0.21;100.00;100657.19;5004689;28;20065;-81
2021/01/01 00:57:32;;;;;;;604.22;331.90;;;;;;;0.25;100.00;100670.03;5018816;28;20083;-81
2021/01/01 00:59:58;;;;;;;602.58;320.70;;;;;;;0.29;100.00;100666.31;5003746;28;20028;-81
2021/01/01 01:02:23;;;;;;;624.30;331.73;;;;;;;0.34;100.00;100660.78;5019756;28;20033;-80
2021/01/01 01:04:49;;;;;;;635.08;341.20;;;;;;;0.46;100.00;100661.84;5007552;28;20018;-80
2021/01/01 01:07:14;;;;;;;684.20;371.92;;;;;;;0.50;100.00;100667.75;5030622;28;20032;-81
2021/01/01 01:09:39;;;;;;;658.47;367.33;;;;;;;0.54;100.00;100672.72;5028167;28;20048;-82
2021/01/01 01:12:05;;;;;;;637.50;363.10;;;;;;;0.45;100.00;100655.72;5022116;28;20040;-81
2021/01/01 01:14:30;;;;;;;656.03;370.95;;;;;;;0.52;100.00;100658.81;5027044;28;20072;-81
2021/01/01 01:16:56;;;;;;;678.42;392.02;;;;;;;0.63;100.00;100673.09;5030615;28;20037;-81
2021/01/01 01:19:21;;;;;;;680.15;394.40;;;;;;;0.60;100.00;100674.97;5026414;28;20041;-82
2021/01/01 01:21:47;;;;;;;668.97;395.42;;;;;;;0.54;100.00;100677.13;4993378;28;20032;-80
2021/01/01 01:24:12;;;;;;;640.15;372.85;;;;;;;0.50;100.00;100676.44;5023781;28;20400;-81
2021/01/01 01:26:38;;;;;;;591.15;343.38;;;;;;;0.47;100.00;100670.53;5019010;28;20026;-81
2021/01/01 01:29:03;;;;;;;578.38;327.60;;;;;;;0.46;100.00;100677.59;5020122;28;20515;-81
2021/01/01 01:31:29;;;;;;;545.25;311.40;;;;;;;0.32;100.00;100656.56;5028135;28;20044;-82
2021/01/01 01:33:54;;;;;;;596.83;326.35;;;;;;;0.27;100.00;100651.59;5026050;28;20116;-81
2021/01/01 01:36:20;;;;;;;604.40;332.52;;;;;;;0.44;100.00;100677.66;5014314;28;20026;-81
2021/01/01 01:38:45;;;;;;;666.25;355.95;;;;;;;0.29;100.00;100647.94;5029851;28;20037;-81
2021/01/01 01:41:11;;;;;;;644.70;347.35;;;;;;;0.25;100.00;100649.03;4990002;28;20021;-82
2021/01/01 01:43:37;;;;;;;635.90;337.52;;;;;;;0.28;100.00;100640.13;5023708;28;20721;-82
2021/01/01 01:46:02;;;;;;;645.20;338.10;;;;;;;0.57;100.00;100682.19;5004555;28;20033;-81
2021/01/01 01:48:32;;;;;;;619.85;330.55;;;;;;;0.58;100.00;100684.72;5025345;28;20030;-81
2021/01/01 01:50:58;;;;;;;606.10;320.38;;;;;;;0.61;100.00;100686.31;5006865;28;20492;-83
2021/01/01 01:53:24;;;;;;;578.92;310.25;;;;;;;0.63;100.00;100687.06;4996314;28;20025;-85
2021/01/01 01:55:51;;;;;;;554.97;292.98;;;;;;;0.61;100.00;100694.19;5007788;28;20030;-81
2021/01/01 01:58:16;;;;;;;548.53;289.83;;;;;;;0.61;100.00;100689.78;5011372;28;20025;-81
2021/01/01 02:03:16;;;;;;;507.65;267.63;;;;;;;0.33;100.00;100632.00;5029082;28;20124;-90
2021/01/01 02:05:42;;;;;;;501.73;267.55;;;;;;;0.65;100.00;100686.97;5005740;28;20026;-83
2021/01/01 02:08:07;;;;;;;518.40;281.33;;;;;;;-0.06;100.00;100566.88;5025939;28;20025;-92
2021/01/01 02:10:33;;;;;;;531.60;284.00;;;;;;;0.58;100.00;100679.47;5022885;28;20491;-77
2021/01/01 02:12:58;;;;;;;533.13;292.05;;;;;;;0.69;100.00;100691.09;4997951;28;20073;-79
2021/01/01 02:15:23;;;;;;;586.17;313.55;;;;;;;0.73;100.00;100690.00;5028881;28;20095;-80
2021/01/01 02:17:49;;;;;;;542.05;302.02;;;;;;;0.73;100.00;100695.25;5008300;28;20092;-83
2021/01/01 02:20:15;;;;;;;547.45;303.90;;;;;;;0.72;100.00;100690.94;5006912;28;20038;-81
2021/01/01 02:22:41;;;;;;;524.83;289.95;;;;;;;0.43;100.00;100654.97;5035064;28;20029;-80
2021/01/01 02:25:08;;;;;;;536.10;295.83;;;;;;;0.69;100.00;100706.88;5028804;28;20029;-81
2021/01/01 02:27:33;;;;;;;541.50;298.15;;;;;;;0.66;100.00;100701.78;5005165;28;20471;-80
2021/01/01 02:29:59;;;;;;;533.15;293.27;;;;;;;0.41;100.00;100675.22;5026477;28;20096;-82
2021/01/01 02:32:24;;;;;;;553.88;301.33;;;;;;;0.58;100.00;100711.00;5009194;28;20046;-81
2021/01/01 02:34:50;;;;;;;545.75;294.40;;;;;;;0.58;100.00;100711.00;5021771;28;20049;-92
2021/01/01 02:37:15;;;;;;;518.97;283.65;;;;;;;0.55;100.00;100707.69;5016127;28;20506;-80
2021/01/01 02:39:41;;;;;;;521.03;285.75;;;;;;;0.54;100.00;100711.28;5022047;28;20029;-80
2021/01/01 02:42:06;;;;;;;528.95;284.95;;;;;;;0.53;100.00;100712.22;5024613;28;20061;-81
2021/01/01 02:44:32;;;;;;;535.75;289.63;;;;;;;0.51;100.00;100709.66;5026864;28;20434;-80
2021/01/01 02:47:03;;;;;;;538.33;285.42;;;;;;;0.40;100.00;100683.19;5026599;28;20044;-80
2021/01/01 02:49:29;;;;;;;513.03;273.48;;;;;;;0.57;100.00;100716.31;5007917;28;20020;-81
2021/01/01 02:51:55;;;;;;;533.53;282.02;;;;;;;0.57;100.00;100717.19;4988309;28;20030;-80
2021/01/01 02:54:21;;;;;;;526.38;284.10;;;;;;;0.24;100.00;100652.59;5024486;28;20041;-80
2021/01/01 02:56:46;;;;;;;526.00;282.55;;;;;;;0.65;100.00;100710.59;5011281;28;20480;-79
2021/01/01 02:59:12;;;;;;;518.97;284.50;;;;;;;0.68;100.00;100710.44;5042653;28;20021;-80
2021/01/01 03:01:37;;;;;;;501.95;280.67;;;;;;;0.71;100.00;100712.88;5025692;28;20071;-80
2021/01/01 03:04:03;;;;;;;504.27;274.75;;;;;;;0.66;100.00;100707.03;5026411;28;20544;-80
2021/01/01 03:06:28;;;;;;;513.13;279.05;;;;;;;0.73;100.00;100711.84;5024881;28;20029;-90
2021/01/01 03:08:54;;;;;;;508.55;278.25;;;;;;;0.59;100.00;100685.56;5008545;28;20037;-80
2021/01/01 03:11:19;;;;;;;515.33;280.02;;;;;;;0.79;100.00;100713.25;5023609;28;20029;-80
2021/01/01 03:13:45;;;;;;;501.60;274.10;;;;;;;0.77;100.00;100712.50;5016402;28;20029;-80
2021/01/01 03:16:10;;;;;;;506.95;273.15;;;;;;;0.77;100.00;100717.75;5020757;28;20488;-80
2021/01/01 03:18:36;;;;;;;506.02;270.15;;;;;;;0.06;100.00;100598.59;5009068;28;20037;-82
2021/01/01 03:21:01;;;;;;;501.00;267.90;;;;;;;0.64;100.00;100690.53;5023273;28;20056;-80
2021/01/01 03:23:27;;;;;;;495.77;265.95;;;;;;;0.87;100.00;100711.03;5033958;28;20029;-85
2021/01/01 03:25:53;;;;;;;502.40;272.85;;;;;;;0.91;100.00;100715.13;5001054;28;20321;-90
2021/01/01 03:28:18;;;;;;;488.05;268.08;;;;;;;0.93;100.00;100716.81;5024986;28;20048;-80
2021/01/01 03:30:44;;;;;;;480.85;260.63;;;;;;;0.95;100.00;100715.78;5003339;28;20048;-80
2021/01/01 03:33:09;;;;;;;483.08;261.67;;;;;;;0.14;100.00;100576.19;5032245;28;20033;-80
2021/01/01 03:35:35;;;;;;;484.45;258.25;;;;;;;0.98;100.00;100706.88;5030395;28;20034;-82
2021/01/01 03:38:00;;;;;;;479.60;261.33;;;;;;;0.99;100.00;100717.28;4988253;28;20495;-81
2021/01/01 03:40:26;;;;;;;466.88;251.90;;;;;;;1.02;100.00;100714.47;5029142;28;20109;-82
2021/01/01 03:42:51;;;;;;;459.58;248.90;;;;;;;1.05;100.00;100710.81;5022326;28;20030;-81
2021/01/01 03:45:17;;;;;;;448.27;243.10;;;;;;;0.99;100.00;100709.41;5028006;28;20492;-80
2021/01/01 03:47:42;;;;;;;444.23;238.52;;;;;;;0.74;100.00;100668.88;5007707;28;20030;-81
2021/01/01 03:50:08;;;;;;;436.15;229.38;;;;;;;1.00;100.00;100711.09;5010559;28;20036;-82
2021/01/01 03:52:34;;;;;;;428.92;225.38;;;;;;;1.00;100.00;100711.09;5028207;28;20029;-81
2021/01/01 03:55:00;;;;;;;452.75;244.40;;;;;;;1.00;100.00;100708.47;5000346;28;20491;-80
2021/01/01 03:57:25;;;;;;;513.03;275.80;;;;;;;1.02;100.00;100708.34;5024203;28;20041;-79
2021/01/01 03:59:50;;;;;;;439.60;234.27;;;;;;;1.03;100.00;100710.06;5026362;28;20492;-79
2021/01/01 04:02:16;;;;;;;396.98;203.82;;;;;;;1.04;100.00;100706.50;5024189;28;20103;-81
2021/01/01 04:04:41;;;;;;;379.70;193.02;;;;;;;1.07;100.00;100708.94;5022307;28;20044;-79
2021/01/01 04:07:07;;;;;;;361.23;181.25;;;;;;;0.81;100.00;100665.88;5031025;28;20453;-90
2021/01/01 04:09:32;;;;;;;342.95;164.18;;;;;;;1.06;100.00;100702.84;5020458;28;20042;-81
2021/01/01 04:11:58;;;;;;;349.90;167.88;;;;;;;0.99;100.00;100684.91;5032714;28;20578;-79
2021/01/01 04:14:24;;;;;;;316.05;154.88;;;;;;;1.15;100.00;100703.19;5010474;28;20033;-81
2021/01/01 04:16:49;;;;;;;331.83;157.85;;;;;;;0.48;100.00;100590.84;5023811;28;20500;-90
2021/01/01 04:19:15;;;;;;;314.45;154.02;;;;;;;1.09;100.00;100688.66;5011498;28;20037;-80
2021/01/01 04:21:47;;;;;;;294.50;142.93;;;;;;;1.23;100.00;100706.19;5024778;28;20527;-81
2021/01/01 04:24:16;;;;;;;289.33;139.40;;;;;;;1.22;100.00;100700.09;5015502;28;20041;-81
2021/01/01 04:26:42;;;;;;;291.05;139.48;;;;;;;1.22;100.00;100704.53;5024126;28;20132;-80
2021/01/01 04:29:07;;;;;;;266.08;129.73;;;;;;;1.21;100.00;100703.66;5027396;28;20369;-91
2021/01/01 04:31:36;;;;;;;252.15;123.47;;;;;;;1.24;100.00;100707.03;5025367;28;20045;-84
2021/01/01 04:34:02;;;;;;;;;;;;;;;1.20;100.00;100701.97;5014450;28;20049;-81
2021/01/01 04:36:27;;;;;;;246.40;116.60;;;;;;;1.22;100.00;100721.13;5021993;28;20420;-79
2021/01/01 04:38:53;;;;;;;232.70;112.80;;;;;;;1.22;100.00;100700.09;5005081;28;20080;-81
2021/01/01 04:41:19;;;;;;;231.60;111.18;;;;;;;0.90;100.00;100653.00;5019399;28;20120;-80
2021/01/01 04:43:45;;;;;;;227.23;108.10;;;;;;;0.96;100.00;100664.91;5019708;28;20472;-80
2021/01/01 04:46:10;;;;;;;220.43;109.47;;;;;;;1.19;100.00;100704.72;5001030;28;20029;-80
2021/01/01 04:48:36;;;;;;;212.40;108.90;;;;;;;1.17;100.00;100710.03;4998500;28;20408;-82
2021/01/01 04:51:01;;;;;;;246.75;122.93;;;;;;;0.96;100.00;100679.84;5014647;28;20029;-80
2021/01/01 04:53:27;;;;;;;259.23;131.30;;;;;;;1.12;100.00;100720.00;5021482;28;20037;-80
2021/01/01 04:55:53;;;;;;;263.48;133.98;;;;;;;0.94;100.00;100692.22;4994344;28;20021;-81
2021/01/01 04:58:18;;;;;;;281.35;143.68;;;;;;;0.93;100.00;100703.69;5019607;28;20107;-79
2021/01/01 05:00:44;;;;;;;280.77;148.00;;;;;;;0.98;100.00;100715.59;4997597;28;20045;-80
2021/01/01 05:03:09;;;;;;;303.85;150.93;;;;;;;0.69;100.00;100673.56;5001486;28;20099;-79
2021/01/01 05:05:35;;;;;;;300.90;150.93;;;;;;;0.93;100.00;100724.69;5021852;28;20048;-81
2021/01/01 05:08:00;;;;;;;310.63;156.70;;;;;;;0.30;100.00;100618.13;5022118;28;20037;-80
2021/01/01 05:10:25;;;;;;;334.85;166.48;;;;;;;0.89;100.00;100713.53;5005178;28;20037;-82
2021/01/01 05:12:51;;;;;;;334.20;166.68;;;;;;;0.87;100.00;100712.78;5023054;28;20029;-79
2021/01/01 05:15:34;;;;;;;343.85;168.98;;;;;;;0.90;100.00;100720.50;5018039;28;20056;-80
2021/01/01 05:17:59;;;;;;;302.98;151.98;;;;;;;-0.15;100.00;100554.31;5004311;28;20135;-82
2021/01/01 05:20:28;;;;;;;309.33;148.88;;;;;;;0.59;100.00;100675.91;5026283;28;20492;-81
2021/01/01 05:22:57;;;;;;;288.98;144.55;;;;;;;0.67;100.00;100701.72;4990734;28;20457;-79
2021/01/01 05:25:22;;;;;;;311.27;150.63;;;;;;;0.82;100.00;100723.56;5020289;28;20018;-88
2021/01/01 05:27:48;;;;;;;296.63;143.07;;;;;;;0.67;100.00;100696.47;5003307;28;20036;-80
2021/01/01 05:30:15;;;;;;;285.95;140.32;;;;;;;0.82;100.00;100726.22;5009690;28;20029;-79
2021/01/01 05:32:52;;;;;;;284.63;136.63;;;;;;;0.64;100.00;100699.28;5021952;28;20095;-91
2021/01/01 05:35:31;;;;;;;276.40;136.35;;;;;;;0.83;100.00;100724.41;4998317;28;20045;-80
2021/01/01 05:37:57;;;;;;;284.08;135.35;;;;;;;0.71;100.00;100713.72;5026460;28;20049;-80
2021/01/01 05:40:30;;;;;;;286.75;135.07;;;;;;;0.79;100.00;100725.56;5004385;28;20509;-81
2021/01/01 05:42:56;;;;;;;277.60;136.10;;;;;;;0.71;100.00;100713.72;4992847;28;20055;-80
2021/01/01 05:45:24;;;;;;;281.05;135.75;;;;;;;0.79;100.00;100720.31;4997996;28;20105;-87
2021/01/01 05:48:06;;;;;;;279.17;131.85;;;;;;;0.79;100.00;100721.13;4991697;28;20483;-87
2021/01/01 05:50:32;;;;;;;275.30;127.50;;;;;;;0.77;100.00;100723.00;5037813;28;20033;-80
2021/01/01 05:53:10;;;;;;;276.50;125.88;;;;;;;0.81;100.00;100726.31;5018226;28;20025;-80
2021/01/01 05:55:35;;;;;;;259.30;122.72;;;;;;;0.64;100.00;100699.28;5020039;28;20017;-82
2021/01/01 05:58:01;;;;;;;253.98;116.97;;;;;;;0.82;100.00;100730.59;5008030;28;20064;-80
2021/01/01 06:00:26;;;;;;;242.52;113.22;;;;;;;0.82;100.00;100734.09;5021475;28;20091;-80
2021/01/01 06:02:52;;;;;;;240.73;111.53;;;;;;;0.85;100.00;100733.03;5022696;28;20515;-88
2021/01/01 06:05:17;;;;;;;223.65;105.25;;;;;;;0.83;100.00;100724.41;4985818;28;20025;-82
2021/01/01 06:07:42;;;;;;;209.07;100.55;;;;;;;0.74;100.00;100710.06;5005316;28;20624;-80
2021/01/01 06:10:09;;;;;;;205.15;99.03;;;;;;;0.75;100.00;100717.84;5034327;28;20410;-79
2021/01/01 06:12:36;;;;;;;198.82;94.95;;;;;;;0.92;100.00;100744.88;5026726;28;20125;-81
2021/01/01 06:15:02;;;;;;;201.82;94.35;;;;;;;0.52;100.00;100679.84;4987101;28;20030;-85
2021/01/01 06:17:44;;;;;;;183.60;87.80;;;;;;;0.32;100.00;100644.28;5025096;28;20052;-88
2021/01/01 06:20:10;;;;;;;180.48;88.45;;;;;;;0.91;100.00;100743.19;5034626;28;20025;-81
2021/01/01 06:22:43;;;;;;;179.85;89.68;;;;;;;0.87;100.00;100732.03;4989243;28;20033;-80
2021/01/01 06:25:09;;;;;;;191.98;89.43;;;;;;;0.58;100.00;100689.97;5009778;28;20052;-83
2021/01/01 06:27:35;;;;;;;171.25;84.90;;;;;;;0.75;100.00;100711.72;5011189;28;20036;-88
2021/01/01 06:30:02;;;;;;;163.35;80.50;;;;;;;0.98;100.00;100743.66;5019839;28;20029;-80
2021/01/01 06:32:27;;;;;;;164.10;76.60;;;;;;;0.90;100.00;100742.34;5008018;28;20540;-80
2021/01/01 06:34:53;;;;;;;152.77;75.70;;;;;;;0.99;100.00;100751.44;5006383;28;20057;-83
2021/01/01 06:37:47;;;;;;;150.85;72.25;;;;;;;0.69;100.00;100699.00;5017297;28;20053;-88
2021/01/01 06:40:22;;;;;;;129.38;65.45;;;;;;;1.00;100.00;100749.69;5001848;28;20033;-80
2021/01/01 06:43:07;;;;;;;126.53;64.72;;;;;;;1.01;100.00;100761.88;5031562;28;20040;-80
2021/01/01 06:45:51;;;;;;;118.70;58.63;;;;;;;0.72;100.00;100714.56;5004819;28;20037;-89
2021/01/01 06:48:29;;;;;;;110.22;55.13;;;;;;;1.02;100.00;100771.44;4996520;28;20038;-80
2021/01/01 06:50:54;;;;;;;109.53;54.93;;;;;;;1.03;100.00;100763.47;5023922;28;20060;-88
2021/01/01 06:53:27;;;;;;;107.70;55.03;;;;;;;0.92;100.00;100760.66;5036164;28;20467;-91
2021/01/01 06:55:52;;;;;;;112.18;55.65;;;;;;;0.99;100.00;100769.84;5004239;28;20384;-81
2021/01/01 06:58:24;;;;;;;108.25;52.90;;;;;;;0.97;100.00;100770.88;5014683;28;20022;-80
2021/01/01 07:00:50;;;;;;;100.07;52.50;;;;;;;0.97;100.00;100769.09;5024327;28;20049;-91
2021/01/01 07:03:38;;;;;;;105.55;51.75;;;;;;;0.96;100.00;100774.44;5007110;28;20076;-81
2021/01/01 07:06:03;;;;;;;95.75;48.42;;;;;;;0.93;100.00;100775.50;5024329;28;20113;-80
2021/01/01 07:08:44;;;;;;;95.95;48.10;;;;;;;0.94;100.00;100779.81;5027697;28;20116;-81
2021/01/01 07:11:12;;;;;;;102.53;48.47;;;;;;;0.97;100.00;100773.50;5025395;28;20025;-90
2021/01/01 07:13:54;;;;;;;96.40;46.83;;;;;;;0.97;100.00;100771.72;5026285;28;20133;-81
2021/01/01 07:16:21;;;;;;;91.82;47.10;;;;;;;0.68;100.00;100729.66;5022586;28;20485;-80
2021/01/01 07:18:46;;;;;;;87.93;43.70;;;;;;;0.98;100.00;100781.28;5009789;28;20089;-81
2021/01/01 07:21:14;;;;;;;81.78;41.83;;;;;;;0.98;100.00;100776.03;5010445;28;20041;-81
2021/01/01 07:23:40;;;;;;;78.20;40.00;;;;;;;0.98;100.00;100788.34;5028110;28;20036;-80
2021/01/01 07:26:06;;;;;;;77.38;39.80;;;;;;;0.99;100.00;100785.63;5027686;28;20538;-80
2021/01/01 07:28:31;;;;;;;67.68;37.55;;;;;;;1.00;100.00;100789.94;5011038;28;20403;-80
2021/01/01 07:30:57;;;;;;;72.35;37.85;;;;;;;0.99;100.00;100787.41;5026970;28;20123;-80
2021/01/01 07:33:26;;;;;;;68.55;35.88;;;;;;;0.98;100.00;100786.56;5013483;28;20049;-79
2021/01/01 07:36:03;;;;;;;68.57;36.25;;;;;;;0.97;100.00;100791.91;5025767;28;20026;-83
2021/01/01 07:38:30;;;;;;;65.43;33.83;;;;;;;0.73;100.00;100760.91;5014582;28;20125;-81
2021/01/01 07:40:55;;;;;;;70.30;35.13;;;;;;;0.78;100.00;100764.09;5024438;28;20103;-80
2021/01/01 07:43:21;;;;;;;62.78;32.58;;;;;;;0.84;100.00;100776.88;5024157;28;20040;-80
2021/01/01 07:45:47;;;;;;;60.25;31.52;;;;;;;1.00;100.00;100800.44;5017896;28;20271;-81
2021/01/01 07:48:12;;;;;;;58.42;30.58;;;;;;;0.87;100.00;100775.84;5021277;28;20037;-83
2021/01/01 07:50:38;;;;;;;57.65;30.73;;;;;;;0.86;100.00;100769.75;5020120;28;20034;-77
2021/01/01 07:53:08;;;;;;;54.58;28.15;;;;;;;0.97;100.00;100792.75;5002388;28;20050;-76
2021/01/01 07:55:33;;;;;;;60.85;30.85;;;;;;;-0.43;100.00;100591.81;4992264;28;20034;-81
2021/01/01 07:57:59;;;;;;;57.22;29.00;;;;;;;0.90;100.00;100765.16;4991993;28;20051;-81
2021/01/01 08:00:28;;;;;;;50.03;26.05;;;;;;;1.04;100.00;100783.56;5003947;28;20117;-81
2021/01/01 08:02:54;;;;;;;43.75;24.27;;;;;;;1.14;100.00;100797.00;5022165;28;20484;-89
2021/01/01 08:05:19;;;;;;;41.88;23.60;;;;;;;1.08;100.00;100788.63;4987223;28;20021;-80
2021/01/01 08:07:45;;;;;;;39.53;22.23;;;;;;;1.20;100.00;100806.28;5009169;28;20029;-80
2021/01/01 08:10:10;;;;;;;43.08;21.88;;;;;;;0.88;100.00;100744.22;5030871;28;20392;-79
2021/01/01 08:12:36;;;;;;;38.22;21.35;;;;;;;1.23;100.00;100803.47;5027350;28;20029;-80
2021/01/01 08:15:02;;;;;;;42.70;20.65;;;;;;;1.29;100.00;100807.53;5025878;28;20029;-83
2021/01/01 08:17:30;;;;;;;40.33;21.02;;;;;;;1.17;100.00;100791.53;5019283;28;20032;-78
2021/01/01 08:19:59;;;;;;;36.03;20.35;;;;;;;1.36;100.00;100814.91;5017062;28;20025;-79
2021/01/01 08:22:33;;;;;;;;;;;;;;;1.38;100.00;100815.66;5005719;28;20026;-79
2021/01/01 08:24:59;;;;;;;33.92;17.83;;;;;;;1.36;100.00;100814.91;5021400;28;19920;-81
2021/01/01 08:27:24;;;;;;;32.80;18.77;;;;;;;1.34;100.00;100808.94;4975937;28;20176;-79
2021/01/01 08:29:50;;;;;;;33.03;18.75;;;;;;;1.47;100.00;100822.16;4995238;28;20567;-79
2021/01/01 08:32:17;;;;;;;36.45;17.67;;;;;;;1.38;100.00;100812.22;4989247;28;20297;-79
2021/01/01 08:34:42;;;;;;;32.60;18.38;;;;;;;1.55;100.00;100828.75;4993198;28;20073;-78
2021/01/01 08:37:21;;;;;;;32.50;18.00;;;;;;;1.57;100.00;100827.69;5000092;28;20038;-79
2021/01/01 08:39:47;;;;;;;33.42;18.75;;;;;;;1.40;100.00;100796.31;5005619;28;20033;-90
2021/01/01 08:42:24;;;;;;;26.50;16.92;;;;;;;1.64;100.00;100830.78;5009308;28;20084;-84
2021/01/01 08:44:56;;;;;;;29.65;17.70;;;;;;;1.41;100.00;100796.25;5022460;28;20108;-86
2021/01/01 08:47:37;;;;;;;30.85;17.60;;;;;;;1.68;100.00;100840.19;4976026;28;20028;-89
2021/01/01 08:50:03;;;;;;;31.08;17.77;;;;;;;1.71;100.00;100847.88;5021018;28;20031;-85
2021/01/01 08:52:29;;;;;;;30.50;17.17;;;;;;;1.74;100.00;100839.78;5018884;28;20048;-87
2021/01/01 08:54:54;;;;;;;27.15;16.98;;;;;;;1.79;100.00;100840.34;5026507;28;20030;-92
2021/01/01 08:57:26;;;;;;;31.08;18.35;;;;;;;1.70;100.00;100819.88;5020376;28;20030;-91
2021/01/01 08:59:59;;;;;;;28.10;16.90;;;;;;;1.81;100.00;100832.34;5021542;28;20061;-88
2021/01/01 09:02:26;;;;;;;35.05;17.55;;;;;;;1.80;100.00;100833.28;5021379;28;20044;-84
2021/01/01 09:04:51;;;;;;;30.25;17.83;;;;;;;1.88;100.00;100838.94;4991875;28;20017;-86
2021/01/01 09:07:17;;;;;;;29.73;17.85;;;;;;;2.02;100.00;100855.66;5024652;28;20071;-85
2021/01/01 09:09:43;;;;;;;29.00;17.42;;;;;;;2.04;100.00;100859.00;5018873;28;20484;-85
2021/01/01 09:12:19;;;;;;;30.92;18.15;;;;;;;2.09;100.00;100860.44;5020029;28;20053;-84
2021/01/01 09:14:51;;;;;;;29.85;17.27;;;;;;;2.14;99.91;100860.13;5003124;28;20021;-84
2021/01/01 09:17:21;;;;;;;24.80;16.10;;;;;;;2.18;100.00;100858.97;5020968;28;20026;-84
2021/01/01 09:19:47;;;;;;;22.50;15.35;;;;;;;2.22;99.83;100870.16;5024958;28;20048;-84
2021/01/01 09:22:17;;;;;;;27.67;15.82;;;;;;;2.27;99.77;100868.06;4989153;28;20500;-84
2021/01/01 09:24:44;;;;;;;24.80;15.90;;;;;;;2.14;99.56;100847.78;5021798;28;20026;-84
2021/01/01 09:27:09;;;;;;;23.60;15.73;;;;;;;2.10;99.46;100841.03;5005450;28;20515;-83
2021/01/01 09:29:35;;;;;;;27.90;16.63;;;;;;;2.38;99.56;100880.56;5018083;28;20025;-83
2021/01/01 09:32:00;;;;;;;22.98;15.38;;;;;;;1.86;99.37;100796.06;5018238;28;20492;-84
2021/01/01 09:34:26;;;;;;;26.10;15.88;;;;;;;2.33;99.32;100870.31;5019920;28;20041;-83
2021/01/01 09:36:51;;;;;;;29.45;16.52;;;;;;;2.38;99.47;100876.13;4999435;28;20091;-87
2021/01/01 09:39:17;;;;;;;22.00;15.18;;;;;;;2.47;99.23;100885.22;5006852;28;20113;-84
2021/01/01 09:41:48;;;;;;;27.20;15.93;;;;;;;2.49;99.49;100880.69;5017758;28;20038;-84
2021/01/01 09:44:14;;;;;;;26.35;16.13;;;;;;;2.48;99.01;100880.81;5040289;28;20030;-84
2021/01/01 09:46:43;;;;;;;26.67;16.83;;;;;;;2.47;99.16;100887.03;5022130;28;20147;-83
2021/01/01 09:49:09;;;;;;;25.10;16.45;;;;;;;2.24;98.82;100847.22;5003188;28;20113;-83
2021/01/01 09:51:41;;;;;;;28.05;16.90;;;;;;;2.47;99.44;100884.38;5002725;28;20568;-82
2021/01/01 09:54:06;;;;;;;29.38;17.60;;;;;;;2.50;99.35;100885.03;5017284;28;20615;-82
2021/01/01 09:56:33;;;;;;;21.27;15.48;;;;;;;2.50;98.89;100887.66;5017210;28;20030;-83
2021/01/01 09:59:02;;;;;;;23.67;15.55;;;;;;;2.54;99.11;100891.78;5020714;28;20515;-81
2021/01/01 10:01:30;;;;;;;20.02;13.73;;;;;;;2.53;98.52;100876.94;5011126;28;20069;-81
2021/01/01 10:03:56;;;;;;;24.83;14.55;;;;;;;2.53;98.54;100865.53;4999708;28;20037;-81
2021/01/01 10:06:22;;;;;;;22.23;13.98;;;;;;;2.67;97.87;100893.63;5000102;28;20057;-82
2021/01/01 10:08:47;;;;;;;22.02;14.48;;;;;;;2.67;98.15;100883.91;5003306;28;20045;-81
2021/01/01 10:11:13;;;;;;;21.55;13.82;;;;;;;2.74;98.20;100901.03;4999410;28;20582;-84
2021/01/01 10:13:39;;;;;;;24.02;14.65;;;;;;;2.69;98.07;100886.47;4984445;28;20022;-81
2021/01/01 10:16:09;;;;;;;22.40;16.25;;;;;;;2.79;98.27;100905.13;5002424;28;20042;-81
2021/01/01 10:18:34;;;;;;;24.08;15.35;;;;;;;2.69;98.32;100886.47;5005386;28;20125;-91
2021/01/01 10:21:00;;;;;;;23.75;14.77;;;;;;;2.74;98.30;100892.25;5001965;28;20037;-81
2021/01/01 10:23:25;;;;;;;20.15;13.23;;;;;;;2.85;98.23;100905.56;5005849;28;20051;-82
2021/01/01 10:25:51;;;;;;;21.75;12.13;;;;;;;2.71;97.80;100869.59;5021120;28;20443;-82
2021/01/01 10:28:17;;;;;;;20.50;12.88;;;;;;;2.95;98.01;100905.81;5024787;28;20748;-82
2021/01/01 10:30:43;;;;;;;22.00;13.85;;;;;;;2.82;97.89;100875.94;5020862;28;20510;-81
2021/01/01 10:33:09;;;;;;;18.40;12.70;;;;;;;3.08;97.48;100905.00;5026427;28;20052;-82
2021/01/01 10:35:35;;;;;;;21.27;12.82;;;;;;;3.11;97.21;100892.47;5025690;28;20046;-93
2021/01/01 10:38:00;;;;;;;22.45;12.75;;;;;;;3.28;96.85;100898.38;5026831;28;20049;-82
2021/01/01 10:40:26;;;;;;;19.00;11.73;;;;;;;3.39;96.43;100895.88;5001538;28;20112;-82
2021/01/01 10:42:52;;;;;;;18.98;11.75;;;;;;;3.36;96.62;100882.88;5018476;28;20061;-82
2021/01/01 10:45:17;;;;;;;22.00;13.80;;;;;;;3.54;96.24;100899.22;5020577;28;20028;-84
2021/01/01 10:47:43;;;;;;;22.52;13.43;;;;;;;3.58;96.21;100898.09;5023180;28;20059;-90
2021/01/01 10:50:09;;;;;;;24.23;16.10;;;;;;;3.67;95.87;100896.56;5022657;28;20136;-81
2021/01/01 10:52:34;;;;;;;21.60;14.70;;;;;;;3.69;95.85;100894.66;4994547;28;20484;-81
2021/01/01 10:55:00;;;;;;;19.10;12.55;;;;;;;3.70;95.73;100895.53;5010140;28;20037;-83
2021/01/01 10:57:25;;;;;;;16.10;11.77;;;;;;;3.70;95.12;100895.53;5019819;28;20040;-89
2021/01/01 10:59:51;;;;;;;22.25;14.90;;;;;;;3.60;95.56;100882.13;5005698;28;20456;-82
2021/01/01 11:02:16;;;;;;;21.65;13.88;;;;;;;3.67;95.41;100888.66;5025475;28;20116;-82
2021/01/01 11:04:42;;;;;;;23.98;16.13;;;;;;;3.62;95.39;100890.78;5022157;28;20034;-81